createdAt,value
2022-07-30T00:07:14.611Z,43.41
2022-07-30T00:22:17.065Z,43.22
2022-07-30T00:37:19.368Z,42.77
2022-07-30T00:52:21.646Z,42.62
2022-07-30T01:07:24.106Z,41.79
2022-07-30T01:22:30.612Z,41.39
2022-07-30T01:37:33.307Z,40.84
2022-07-30T01:52:35.583Z,39.79
2022-07-30T02:07:37.922Z,38.39
2022-07-30T02:22:40.222Z,36.79
2022-07-30T02:37:44.122Z,35.66
2022-07-30T02:52:46.832Z,35.55
2022-07-30T03:07:49.100Z,34.88
2022-07-30T03:22:51.446Z,33.96
2022-07-30T03:37:53.765Z,33.81
2022-07-30T03:52:56.089Z,33.05
2022-07-30T04:07:58.403Z,32.7
2022-07-30T04:23:02.207Z,31.27
2022-07-30T04:38:04.489Z,31.24
2022-07-30T04:53:06.838Z,30.23
2022-07-30T05:08:09.068Z,30.01
2022-07-30T05:23:11.379Z,29.31
2022-07-30T05:38:13.662Z,29.32
2022-07-30T05:53:15.983Z,28.22
2022-07-30T06:08:18.393Z,27.23
2022-07-30T06:23:20.698Z,27.59
2022-07-30T06:38:23.183Z,27.44
2022-07-30T06:53:25.562Z,27.1
2022-07-30T07:08:27.840Z,26.88
2022-07-30T07:23:41.668Z,26.62
2022-07-30T07:38:45.000Z,25.79
2022-07-30T07:54:05.731Z,25.94
2022-07-30T08:09:22.539Z,25.76
2022-07-30T08:24:24.727Z,25.62
2022-07-30T08:39:26.947Z,25.62
2022-07-30T08:54:29.212Z,24.88
2022-07-30T09:09:31.554Z,24.57
2022-07-30T09:24:34.492Z,24.15
2022-07-30T09:39:36.789Z,23.28
2022-07-30T09:54:39.038Z,23.4
2022-07-30T10:09:54.341Z,22.99
2022-07-30T10:24:56.579Z,23.35
2022-07-30T10:39:59.622Z,22.99
2022-07-30T10:55:01.972Z,23.1
2022-07-30T11:10:09.630Z,22.62
2022-07-30T11:25:13.066Z,22.53
2022-07-30T11:40:15.910Z,22.22
2022-07-30T11:55:28.655Z,22.55
2022-07-30T12:10:31.003Z,22.2
2022-07-30T12:25:33.347Z,22.75
2022-07-30T12:40:35.671Z,21.81
2022-07-30T12:55:38.166Z,22.23
2022-07-30T13:10:40.458Z,21.92
2022-07-30T13:25:42.781Z,22.45
2022-07-30T13:40:45.067Z,22.73
2022-07-30T13:55:47.421Z,23.39
2022-07-30T14:10:49.710Z,23.9
2022-07-30T14:25:52.287Z,25.33
2022-07-30T14:40:54.551Z,25.12
2022-07-30T14:55:56.909Z,25.58
2022-07-30T15:11:02.596Z,26.84
2022-07-30T15:26:08.454Z,27.73
2022-07-30T15:41:13.712Z,29.33
2022-07-30T15:56:16.394Z,30.34
2022-07-30T16:11:18.703Z,30.86
2022-07-30T16:26:20.949Z,30.76
2022-07-30T16:41:23.237Z,31.48
2022-07-30T16:56:25.556Z,31.82
2022-07-30T17:11:46.954Z,32.22
2022-07-30T17:26:54.479Z,32.94
2022-07-30T17:42:01.976Z,33.42
2022-07-30T17:57:05.487Z,33.27
2022-07-30T18:12:07.781Z,34.1
2022-07-30T18:27:10.052Z,34.91
2022-07-30T18:42:12.379Z,35.32
2022-07-30T18:57:14.820Z,35.36
2022-07-30T19:12:17.129Z,35.73
2022-07-30T19:27:19.424Z,36.16
2022-07-30T19:42:21.714Z,36.6
2022-07-30T19:57:24.049Z,37.46
2022-07-30T20:12:56.011Z,38.11
2022-07-30T20:27:59.249Z,38.63
2022-07-30T20:43:01.758Z,39.34
2022-07-30T20:58:13.891Z,40.09
2022-07-30T21:13:19.088Z,40.41
2022-07-30T21:28:27.177Z,40.42
2022-07-30T21:43:30.558Z,40.87
2022-07-30T21:58:36.071Z,40.62
2022-07-30T23:12:28.467Z,41.58
2022-07-30T23:27:32.755Z,43.84
2022-07-30T23:42:35.019Z,44.17
2022-07-30T23:57:37.428Z,44
